Time;durP1;ratioP1;P1;durP2;ratioP2;P2;SDS_P1;SDS_P2;PMS_P1;PMS_P2;Temp;Humidity;BMP_temperature;BMP_pressure;BME280_temperature;BME280_humidity;BME280_pressure;Samples;Min_cycle;Max_cycle;Signal;HPM_P1;HPM_P2
2023/12/04 05:02:18;;;;;;;9.55;6.60;;;-1.30;99.90;;;;;;5071101;23;20256;-72
2023/12/04 05:04:45;;;;;;;17.20;8.18;;;-1.30;99.90;;;;;;4938616;29;20240;-72
2023/12/04 05:07:12;;;;;;;14.88;9.48;;;-1.30;99.90;;;;;;4936292;29;20225;-72
2023/12/04 05:09:39;;;;;;;8.15;6.45;;;-1.30;99.90;;;;;;4934488;29;20213;-72
2023/12/04 05:12:06;;;;;;;8.25;4.47;;;-1.20;99.90;;;;;;4927844;29;20234;-72
2023/12/04 05:14:33;;;;;;;7.72;5.32;;;-1.30;99.90;;;;;;4915073;29;20209;-72
2023/12/04 05:17:00;;;;;;;16.65;6.18;;;-1.30;99.90;;;;;;4925193;29;20206;-72
2023/12/04 05:19:28;;;;;;;15.63;5.82;;;-1.30;99.90;;;;;;4916712;29;20333;-72
2023/12/04 05:21:54;;;;;;;7.00;2.88;;;-1.30;99.90;;;;;;4922350;29;20230;-72
2023/12/04 05:24:21;;;;;;;12.88;7.40;;;-1.30;99.90;;;;;;4922231;29;20242;-72
2023/12/04 05:26:48;;;;;;;10.20;5.10;;;-1.30;99.90;;;;;;4914478;29;20215;-72
2023/12/04 05:29:15;;;;;;;5.38;4.88;;;-1.30;99.90;;;;;;4922381;29;20207;-72
2023/12/04 05:31:41;;;;;;;1.10;1.10;;;-1.30;99.90;;;;;;4923375;29;20249;-72
2023/12/04 05:34:08;;;;;;;4.80;3.58;;;-1.30;99.90;;;;;;4925813;29;20213;-72
2023/12/04 05:36:36;;;;;;;6.68;4.72;;;-1.30;99.90;;;;;;4915795;29;20234;-72
2023/12/04 05:39:04;;;;;;;4.30;3.58;;;-1.30;99.90;;;;;;4920664;29;20210;-72
2023/12/04 05:41:31;;;;;;;11.07;6.88;;;-1.30;99.90;;;;;;4919030;29;20284;-72
2023/12/04 05:43:57;;;;;;;4.05;3.63;;;-1.30;99.90;;;;;;4920117;29;20213;-72
2023/12/04 05:46:24;;;;;;;5.00;4.57;;;-1.30;99.90;;;;;;4917734;29;20215;-71
2023/12/04 05:48:51;;;;;;;7.47;6.55;;;-1.20;99.90;;;;;;4919527;29;20211;-71
2023/12/04 05:51:17;;;;;;;4.03;2.38;;;-1.30;99.90;;;;;;4917190;29;20234;-71
2023/12/04 05:53:45;;;;;;;10.90;3.72;;;-1.30;99.90;;;;;;4916184;29;20223;-71
2023/12/04 05:56:12;;;;;;;7.40;5.75;;;-1.20;99.90;;;;;;4916370;29;20630;-71
2023/12/04 05:58:39;;;;;;;6.20;5.60;;;-1.20;99.90;;;;;;4912999;29;20221;-71
2023/12/04 06:01:07;;;;;;;5.18;3.33;;;-1.20;99.90;;;;;;4914438;29;20249;-71
2023/12/04 06:03:34;;;;;;;5.88;3.47;;;-1.20;99.90;;;;;;4916601;29;20863;-71
2023/12/04 06:06:00;;;;;;;11.68;6.50;;;-1.20;99.90;;;;;;4916409;29;20215;-71
2023/12/04 06:08:27;;;;;;;3.10;3.03;;;-1.20;99.90;;;;;;4913501;29;20298;-71
2023/12/04 06:10:55;;;;;;;4.95;4.53;;;-1.20;99.90;;;;;;4915395;29;20226;-72
2023/12/04 06:13:22;;;;;;;6.78;4.28;;;-1.20;99.90;;;;;;4913886;29;20210;-71
2023/12/04 06:15:48;;;;;;;11.60;6.60;;;-1.10;99.90;;;;;;4913890;29;20222;-71
2023/12/04 06:18:15;;;;;;;4.45;3.08;;;-1.10;99.90;;;;;;4914965;29;20290;-71
2023/12/04 06:20:42;;;;;;;9.88;7.43;;;-1.10;99.90;;;;;;4915353;29;20247;-71
2023/12/04 06:23:09;;;;;;;15.23;6.15;;;-1.10;99.90;;;;;;4914993;29;20211;-71
2023/12/04 06:25:38;;;;;;;8.93;4.53;;;-1.10;99.90;;;;;;4913300;29;20579;-71
2023/12/04 06:28:07;;;;;;;6.65;5.78;;;-1.10;99.90;;;;;;4915459;29;20312;-72
2023/12/04 06:30:34;;;;;;;7.95;7.05;;;-1.10;99.90;;;;;;4912807;29;20231;-70
2023/12/04 06:33:01;;;;;;;6.55;3.85;;;-1.10;99.90;;;;;;4914791;29;20215;-70
2023/12/04 06:35:28;;;;;;;5.80;4.65;;;-1.10;99.90;;;;;;4909431;29;20225;-70
2023/12/04 06:37:56;;;;;;;5.18;4.50;;;-1.10;99.90;;;;;;4913306;29;20677;-70
2023/12/04 06:40:23;;;;;;;4.07;3.67;;;-1.10;99.90;;;;;;4912034;29;20250;-70
2023/12/04 06:42:50;;;;;;;6.10;3.58;;;-1.10;99.90;;;;;;4914125;29;20215;-70
2023/12/04 06:45:19;;;;;;;7.70;6.43;;;-1.10;99.90;;;;;;4912461;29;20237;-69
2023/12/04 06:47:49;;;;;;;6.05;5.40;;;-1.10;99.90;;;;;;4914014;29;20213;-70
2023/12/04 06:50:16;;;;;;;9.32;3.60;;;-1.00;99.90;;;;;;4913763;29;20241;-70
2023/12/04 06:52:43;;;;;;;14.57;8.55;;;-1.00;99.90;;;;;;4908032;29;20310;-70
2023/12/04 06:55:09;;;;;;;10.38;8.18;;;-1.00;99.90;;;;;;4912450;29;20217;-70
2023/12/04 06:57:36;;;;;;;9.32;7.50;;;-1.00;99.90;;;;;;4911286;29;20218;-70
2023/12/04 07:00:04;;;;;;;7.50;4.25;;;-0.90;99.90;;;;;;4913451;29;20327;-70
2023/12/04 07:02:32;;;;;;;6.53;3.67;;;-0.90;99.90;;;;;;4911141;29;20724;-70
2023/12/04 07:04:58;;;;;;;7.07;5.40;;;-0.90;99.90;;;;;;4909562;29;20214;-70
2023/12/04 07:07:25;;;;;;;10.85;7.43;;;-0.80;99.90;;;;;;4912614;29;20303;-70
2023/12/04 07:09:52;;;;;;;10.65;5.93;;;-0.80;99.90;;;;;;4913470;29;20226;-69
2023/12/04 07:12:18;;;;;;;7.95;6.25;;;-0.70;99.90;;;;;;4913537;29;20231;-70
2023/12/04 07:14:45;;;;;;;9.75;5.75;;;-0.70;99.90;;;;;;4912841;29;20211;-70
2023/12/04 07:17:12;;;;;;;6.32;4.88;;;-0.70;99.90;;;;;;4913801;29;20218;-70
2023/12/04 07:19:42;;;;;;;8.43;6.68;;;-0.70;99.90;;;;;;4911170;29;20618;-71
2023/12/04 07:22:08;;;;;;;5.53;5.00;;;-0.70;99.90;;;;;;4909361;29;20234;-70
2023/12/04 07:24:35;;;;;;;9.98;7.00;;;-0.60;99.90;;;;;;4910704;29;20218;-70
2023/12/04 07:27:02;;;;;;;9.68;7.90;;;-0.60;99.90;;;;;;4913581;29;20225;-70
2023/12/04 07:29:28;;;;;;;12.93;9.15;;;-0.60;99.90;;;;;;4912350;29;20207;-70
2023/12/04 07:31:55;;;;;;;6.75;5.53;;;-0.60;99.90;;;;;;4911346;29;20226;-71
2023/12/04 07:34:22;;;;;;;2.97;2.90;;;-0.50;99.90;;;;;;4907238;29;20882;-70
2023/12/04 07:36:50;;;;;;;9.30;6.13;;;-0.50;99.90;;;;;;4912446;29;20221;-71
2023/12/04 07:39:17;;;;;;;14.60;7.75;;;-0.50;99.90;;;;;;4906601;29;20404;-71
2023/12/04 07:41:44;;;;;;;12.70;7.53;;;-0.50;99.90;;;;;;4909426;29;20242;-70
2023/12/04 07:44:10;;;;;;;5.38;4.30;;;-0.50;99.90;;;;;;4912727;29;20219;-71
2023/12/04 07:46:37;;;;;;;3.70;3.40;;;-0.50;99.90;;;;;;4913167;29;20606;-71
2023/12/04 07:49:03;;;;;;;6.00;4.75;;;-0.50;99.90;;;;;;4913706;29;20598;-70
2023/12/04 07:51:30;;;;;;;9.88;6.13;;;-0.50;99.90;;;;;;4912843;29;20690;-72
2023/12/04 07:53:58;;;;;;;5.20;4.20;;;-0.50;99.90;;;;;;4912214;29;20610;-71
2023/12/04 07:56:25;;;;;;;10.45;8.70;;;-0.50;99.90;;;;;;4910664;29;20656;-71
2023/12/04 07:58:52;;;;;;;10.18;5.47;;;-0.50;99.90;;;;;;4913387;29;20218;-71
2023/12/04 08:01:18;;;;;;;11.50;5.93;;;-0.50;99.90;;;;;;4910618;29;20234;-71
2023/12/04 08:03:45;;;;;;;7.57;5.53;;;-0.40;99.90;;;;;;4913616;29;20511;-70
2023/12/04 08:06:12;;;;;;;11.13;8.05;;;-0.40;99.90;;;;;;4913432;29;20266;-71
2023/12/04 08:08:39;;;;;;;9.82;4.97;;;-0.40;99.90;;;;;;4911335;29;20217;-70
2023/12/04 08:11:10;;;;;;;5.72;3.95;;;-0.40;99.90;;;;;;4912531;29;20264;-69
2023/12/04 08:13:37;;;;;;;3.92;3.65;;;-0.30;99.90;;;;;;4912277;29;20218;-70
2023/12/04 08:16:05;;;;;;;4.65;4.35;;;-0.30;99.90;;;;;;4913571;29;20777;-70
2023/12/04 08:18:31;;;;;;;7.20;5.00;;;-0.30;99.90;;;;;;4913666;29;20218;-71
2023/12/04 08:21:01;;;;;;;5.63;4.78;;;-0.30;99.90;;;;;;4910042;29;20234;-70
2023/12/04 08:23:28;;;;;;;5.40;4.90;;;-0.30;99.90;;;;;;4903305;29;20221;-71
2023/12/04 08:25:55;;;;;;;8.90;5.90;;;-0.20;99.90;;;;;;4906425;29;20602;-71
2023/12/04 08:28:23;;;;;;;2.40;2.30;;;-0.20;99.90;;;;;;4913320;29;20222;-71
2023/12/04 08:30:50;;;;;;;8.95;6.60;;;-0.30;99.90;;;;;;4914293;29;20231;-71
2023/12/04 08:33:17;;;;;;;4.50;2.90;;;-0.30;99.90;;;;;;4917079;29;20210;-71
2023/12/04 08:35:44;;;;;;;2.83;2.67;;;-0.30;99.90;;;;;;4915125;29;20214;-70
2023/12/04 08:38:11;;;;;;;6.00;5.40;;;-0.30;99.90;;;;;;4916811;29;20211;-69
2023/12/04 08:40:37;;;;;;;8.98;4.43;;;-0.30;99.90;;;;;;4915360;29;20238;-70
2023/12/04 08:43:04;;;;;;;7.68;5.35;;;-0.30;99.90;;;;;;4916209;29;20222;-69
2023/12/04 08:45:33;;;;;;;11.57;6.97;;;-0.30;99.90;;;;;;4915422;29;20786;-70
2023/12/04 08:48:00;;;;;;;12.55;7.57;;;-0.30;99.90;;;;;;4915876;29;20293;-70
2023/12/04 08:50:27;;;;;;;5.63;4.97;;;-0.30;99.90;;;;;;4917430;29;20221;-71
2023/12/04 08:52:53;;;;;;;8.90;4.82;;;-0.30;99.90;;;;;;4916012;29;20213;-70
2023/12/04 08:55:20;;;;;;;5.38;3.55;;;-0.30;99.90;;;;;;4914374;29;20665;-71
2023/12/04 08:57:47;;;;;;;5.47;4.32;;;-0.30;99.90;;;;;;4915818;29;20591;-71
2023/12/04 09:00:15;;;;;;;11.50;5.53;;;-0.30;99.90;;;;;;4915753;29;20272;-71
2023/12/04 09:02:43;;;;;;;5.38;3.45;;;-0.30;99.90;;;;;;4914783;29;20914;-72
2023/12/04 09:05:10;;;;;;;7.07;5.97;;;-0.30;99.90;;;;;;4915309;29;20210;-71
2023/12/04 09:07:36;;;;;;;4.10;3.38;;;-0.20;99.90;;;;;;4916637;29;20236;-71
2023/12/04 09:10:03;;;;;;;3.10;2.80;;;-0.30;99.90;;;;;;4913409;29;20684;-70
2023/12/04 09:12:30;;;;;;;8.07;4.28;;;-0.30;99.90;;;;;;4916147;29;20241;-70
2023/12/04 09:14:57;;;;;;;5.75;4.80;;;-0.20;99.90;;;;;;4915823;29;20206;-71
2023/12/04 09:17:23;;;;;;;4.50;4.25;;;-0.20;99.90;;;;;;4916400;29;20217;-71
2023/12/04 09:19:51;;;;;;;2.95;2.67;;;-0.20;99.90;;;;;;4912666;29;20638;-71
2023/12/04 09:22:18;;;;;;;3.50;3.40;;;-0.20;99.90;;;;;;4915757;29;20705;-71
2023/12/04 09:24:45;;;;;;;4.65;2.95;;;-0.20;99.90;;;;;;4915536;29;20211;-71
2023/12/04 09:27:12;;;;;;;4.57;3.33;;;-0.20;99.90;;;;;;4913539;29;20278;-71
2023/12/04 09:29:38;;;;;;;11.65;5.25;;;-0.10;99.90;;;;;;4913467;29;20226;-71
2023/12/04 09:32:05;;;;;;;2.55;2.35;;;-0.10;99.90;;;;;;4916640;29;20249;-72
2023/12/04 09:34:32;;;;;;;3.42;3.03;;;0.00;99.90;;;;;;4915321;29;20247;-71
2023/12/04 09:37:00;;;;;;;4.38;3.78;;;0.00;99.90;;;;;;4917613;29;20229;-71
2023/12/04 09:39:27;;;;;;;7.75;4.50;;;0.00;99.90;;;;;;4914878;29;20210;-70
2023/12/04 09:41:54;;;;;;;10.82;6.00;;;0.10;99.90;;;;;;4908882;29;20266;-71
2023/12/04 09:44:22;;;;;;;11.13;6.28;;;0.20;99.90;;;;;;4915448;29;20572;-71
2023/12/04 09:46:50;;;;;;;4.47;4.18;;;0.20;99.90;;;;;;4914923;29;20665;-71
2023/12/04 09:49:18;;;;;;;7.20;4.60;;;0.20;99.90;;;;;;4915309;29;20230;-72
2023/12/04 09:51:45;;;;;;;6.95;6.03;;;0.30;99.90;;;;;;4915753;29;20230;-71
2023/12/04 09:54:15;;;;;;;12.82;7.47;;;0.40;99.90;;;;;;4915751;29;20218;-71
2023/12/04 09:56:42;;;;;;;11.75;8.20;;;0.40;99.90;;;;;;4915108;29;20218;-71
2023/12/04 09:59:10;;;;;;;11.10;6.28;;;0.50;99.90;;;;;;4915275;29;20215;-71
2023/12/04 10:01:37;;;;;;;12.82;7.00;;;0.50;99.90;;;;;;4915794;29;20241;-71
2023/12/04 10:04:05;;;;;;;7.32;5.93;;;0.50;99.90;;;;;;4912877;29;20215;-70
2023/12/04 10:06:33;;;;;;;11.38;5.00;;;0.50;99.90;;;;;;4915128;29;20234;-71
2023/12/04 10:08:59;;;;;;;6.72;5.65;;;0.40;99.90;;;;;;4910009;29;20302;-72
2023/12/04 10:11:28;;;;;;;2.05;1.98;;;0.50;99.90;;;;;;4909716;29;20222;-71
2023/12/04 10:13:55;;;;;;;9.93;4.70;;;0.50;99.90;;;;;;4915327;29;20658;-71
2023/12/04 10:16:33;;;;;;;4.88;3.45;;;0.40;99.90;;;;;;4916869;29;20214;-70
2023/12/04 10:19:19;;;;;;;4.82;4.13;;;0.40;99.90;;;;;;4913995;29;20210;-71
2023/12/04 10:21:47;;;;;;;4.22;3.78;;;0.40;99.90;;;;;;4912729;29;20669;-71
2023/12/04 10:24:28;;;;;;;2.38;2.22;;;0.40;99.90;;;;;;4914545;29;20213;-71
2023/12/04 10:26:57;;;;;;;4.32;4.03;;;0.40;99.90;;;;;;4913414;29;20206;-70
2023/12/04 10:29:25;;;;;;;7.45;6.18;;;0.40;99.90;;;;;;4911632;29;20238;-71
2023/12/04 10:31:54;;;;;;;11.23;4.10;;;0.50;99.90;;;;;;4912912;29;20278;-71
2023/12/04 10:34:21;;;;;;;9.85;6.38;;;0.50;99.90;;;;;;4915087;29;20207;-71
2023/12/04 10:36:48;;;;;;;7.47;3.67;;;0.50;99.90;;;;;;4918046;29;20214;-71
2023/12/04 10:39:14;;;;;;;5.55;3.88;;;0.50;99.90;;;;;;4914000;29;20215;-70
2023/12/04 10:41:42;;;;;;;5.65;4.50;;;0.50;99.90;;;;;;4913260;29;20241;-71
2023/12/04 10:44:10;;;;;;;3.47;3.20;;;0.50;99.90;;;;;;4914017;29;20293;-71
2023/12/04 10:46:38;;;;;;;4.78;4.38;;;0.60;99.90;;;;;;4914664;29;20211;-70
2023/12/04 10:49:05;;;;;;;6.40;4.95;;;0.60;99.90;;;;;;4913717;29;20297;-71
2023/12/04 10:51:34;;;;;;;7.90;6.25;;;0.70;99.90;;;;;;4913927;29;20230;-70
2023/12/04 10:54:01;;;;;;;8.25;4.53;;;0.70;99.90;;;;;;4912430;29;20218;-70
2023/12/04 10:56:32;;;;;;;7.40;5.80;;;0.70;99.90;;;;;;4914190;29;20670;-70
2023/12/04 10:59:02;;;;;;;10.27;4.63;;;0.80;99.90;;;;;;4913970;29;20658;-72
2023/12/04 11:01:31;;;;;;;3.25;3.05;;;0.70;99.90;;;;;;4911494;29;20685;-71
2023/12/04 11:04:06;;;;;;;3.67;2.88;;;0.70;99.90;;;;;;4912168;29;20210;-71
2023/12/04 11:06:35;;;;;;;5.35;4.97;;;0.70;99.90;;;;;;4915104;29;20557;-71
2023/12/04 11:09:05;;;;;;;7.28;5.55;;;0.70;99.90;;;;;;4913156;29;20210;-71
2023/12/04 11:11:36;;;;;;;4.05;3.13;;;0.70;99.90;;;;;;4913642;29;20224;-71
2023/12/04 11:14:06;;;;;;;3.08;2.88;;;0.70;99.90;;;;;;4911594;29;20210;-71
2023/12/04 11:16:39;;;;;;;8.60;6.05;;;0.70;99.90;;;;;;4913958;29;20514;-71
2023/12/04 11:19:16;;;;;;;12.35;6.68;;;0.70;99.90;;;;;;4912868;29;20210;-70
2023/12/04 11:21:46;;;;;;;6.63;4.20;;;0.70;99.90;;;;;;4912208;29;20670;-70
2023/12/04 11:24:13;;;;;;;7.25;6.47;;;0.70;99.90;;;;;;4915147;29;20288;-72
2023/12/04 11:26:41;;;;;;;5.15;3.42;;;0.80;99.90;;;;;;4907690;29;20661;-69
2023/12/04 11:29:09;;;;;;;7.03;4.88;;;0.90;99.90;;;;;;4914030;29;20213;-70
2023/12/04 11:31:38;;;;;;;3.33;3.15;;;0.90;99.90;;;;;;4913950;29;20591;-69
2023/12/04 11:34:05;;;;;;;3.65;3.35;;;0.90;99.90;;;;;;4912751;29;20258;-70
2023/12/04 11:36:32;;;;;;;8.63;5.30;;;0.90;99.90;;;;;;4909255;29;20206;-70
2023/12/04 11:39:02;;;;;;;7.75;5.28;;;0.90;99.90;;;;;;4917227;29;20207;-70
2023/12/04 11:41:31;;;;;;;7.20;6.32;;;0.90;99.90;;;;;;4914132;29;20230;-70
2023/12/04 11:43:58;;;;;;;12.98;7.60;;;0.90;99.90;;;;;;4913261;29;20308;-69
2023/12/04 11:46:25;;;;;;;16.15;7.60;;;0.90;99.90;;;;;;4914036;29;20210;-70
2023/12/04 11:48:55;;;;;;;9.57;5.22;;;0.90;99.90;;;;;;4913017;29;20226;-69
2023/12/04 11:51:48;;;;;;;6.88;5.25;;;1.00;99.90;;;;;;4908662;29;20313;-70
2023/12/04 11:54:17;;;;;;;8.35;5.97;;;1.10;99.90;;;;;;4914371;29;20207;-70
2023/12/04 11:56:58;;;;;;;7.93;5.32;;;1.10;99.90;;;;;;4913254;29;20218;-71
2023/12/04 11:59:25;;;;;;;6.63;5.75;;;1.10;99.90;;;;;;4906471;29;20241;-72
2023/12/04 12:01:54;;;;;;;12.55;6.20;;;1.10;99.90;;;;;;4912531;29;20234;-72
2023/12/04 12:04:23;;;;;;;9.00;5.43;;;1.10;99.90;;;;;;4914596;29;20210;-71
2023/12/04 12:06:50;;;;;;;6.95;6.35;;;1.10;99.90;;;;;;4913660;29;20211;-72
2023/12/04 12:09:17;;;;;;;7.28;5.88;;;1.20;99.90;;;;;;4912839;29;20225;-72
2023/12/04 12:11:44;;;;;;;4.80;4.20;;;1.20;99.90;;;;;;4912766;29;20817;-71
2023/12/04 12:14:11;;;;;;;5.10;4.70;;;1.20;99.90;;;;;;4909818;29;20203;-71
2023/12/04 12:16:37;;;;;;;6.97;3.25;;;1.10;99.90;;;;;;4913407;29;20210;-72
2023/12/04 12:19:04;;;;;;;5.68;3.47;;;1.20;99.90;;;;;;4913454;29;20237;-73
2023/12/04 12:21:32;;;;;;;7.68;5.65;;;1.20;99.90;;;;;;4913448;29;20239;-71
2023/12/04 12:23:59;;;;;;;7.38;5.20;;;1.20;99.90;;;;;;4913680;29;20218;-72
2023/12/04 12:26:26;;;;;;;10.00;6.60;;;1.30;99.90;;;;;;4911832;29;20210;-71
2023/12/04 12:28:53;;;;;;;7.95;5.00;;;1.30;99.90;;;;;;4913699;29;20215;-69
2023/12/04 12:31:19;;;;;;;8.65;4.93;;;1.40;99.90;;;;;;4912407;29;20237;-70
2023/12/04 12:33:46;;;;;;;6.32;5.60;;;1.40;99.90;;;;;;4913596;29;20217;-70
2023/12/04 12:36:13;;;;;;;10.57;6.68;;;1.40;99.90;;;;;;4912481;29;20206;-70
2023/12/04 12:38:41;;;;;;;13.52;8.93;;;1.40;99.90;;;;;;4911196;29;20206;-71
2023/12/04 12:41:11;;;;;;;4.55;3.30;;;1.40;99.90;;;;;;4907878;29;20262;-71
2023/12/04 12:43:38;;;;;;;5.35;4.75;;;1.40;99.90;;;;;;4910807;29;20251;-71
2023/12/04 12:46:06;;;;;;;5.22;4.47;;;1.40;99.90;;;;;;4911396;29;20233;-70
2023/12/04 12:48:33;;;;;;;4.43;4.13;;;1.40;99.90;;;;;;4912157;29;20669;-71
2023/12/04 12:51:02;;;;;;;5.05;3.53;;;1.30;99.90;;;;;;4911554;29;20317;-71
2023/12/04 12:53:29;;;;;;;6.63;5.18;;;1.30;99.90;;;;;;4912473;29;20210;-70
2023/12/04 12:55:57;;;;;;;3.30;2.53;;;1.30;99.90;;;;;;4912629;29;20218;-71
2023/12/04 12:58:25;;;;;;;5.85;5.20;;;1.40;99.90;;;;;;4907958;29;20206;-71
2023/12/04 13:00:52;;;;;;;3.70;3.35;;;1.40;99.90;;;;;;4910619;29;20238;-71
2023/12/04 13:03:19;;;;;;;4.22;3.85;;;1.30;99.90;;;;;;4913624;29;20226;-72
2023/12/04 13:05:47;;;;;;;6.13;4.28;;;1.30;99.90;;;;;;4913758;29;20302;-72
2023/12/04 13:08:14;;;;;;;4.38;2.42;;;1.30;99.90;;;;;;4912992;29;20203;-72
2023/12/04 13:10:42;;;;;;;3.10;2.83;;;1.40;99.90;;;;;;4913263;29;20246;-72
2023/12/04 13:13:12;;;;;;;6.53;3.45;;;1.40;99.90;;;;;;4913946;29;20735;-70
2023/12/04 13:15:39;;;;;;;5.90;4.85;;;1.30;99.90;;;;;;4915009;29;20206;-73
2023/12/04 13:18:06;;;;;;;7.53;5.25;;;1.30;99.90;;;;;;4914946;29;20215;-71
2023/12/04 13:20:32;;;;;;;8.23;5.88;;;1.30;99.90;;;;;;4915615;29;20240;-71
2023/12/04 13:22:59;;;;;;;3.70;2.50;;;1.30;99.90;;;;;;4918900;29;20226;-71
2023/12/04 13:25:26;;;;;;;7.90;5.25;;;1.30;99.90;;;;;;4916930;29;20215;-70
2023/12/04 13:27:52;;;;;;;5.78;3.60;;;1.20;99.90;;;;;;4916143;29;20214;-70
2023/12/04 13:30:21;;;;;;;6.95;4.60;;;1.20;99.90;;;;;;4916592;29;20221;-71
2023/12/04 13:32:50;;;;;;;10.50;5.35;;;1.10;99.90;;;;;;4916276;29;20211;-70
2023/12/04 13:35:16;;;;;;;9.13;4.88;;;1.10;99.90;;;;;;4915677;29;21576;-70
2023/12/04 13:37:43;;;;;;;4.15;3.70;;;1.10;99.90;;;;;;4917110;29;20549;-71
2023/12/04 13:40:15;;;;;;;9.50;5.65;;;1.00;99.90;;;;;;4914638;29;20211;-71
2023/12/04 13:45:28;;;;;;;6.90;4.18;;;0.90;99.90;;;;;;4911287;29;20216;-70
2023/12/04 13:47:55;;;;;;;11.70;6.35;;;0.90;99.90;;;;;;4915849;29;20528;-70
2023/12/04 13:50:21;;;;;;;5.53;4.10;;;0.80;99.90;;;;;;4915835;29;20214;-69
2023/12/04 13:52:56;;;;;;;7.15;3.60;;;0.80;99.90;;;;;;4915737;29;20207;-71
2023/12/04 13:55:36;;;;;;;5.82;4.40;;;0.80;99.90;;;;;;4910812;29;20220;-71
2023/12/04 13:58:09;;;;;;;8.02;5.20;;;0.80;99.90;;;;;;4916783;29;20253;-70
2023/12/04 14:00:37;;;;;;;6.70;3.70;;;0.80;99.90;;;;;;4915542;29;20326;-70
2023/12/04 14:03:04;;;;;;;11.20;6.40;;;0.80;99.90;;;;;;4916463;29;20238;-70
2023/12/04 14:05:31;;;;;;;6.68;4.18;;;0.80;99.90;;;;;;4916550;29;20210;-70
2023/12/04 14:07:58;;;;;;;6.53;4.57;;;0.80;99.90;;;;;;4915022;29;20674;-70
2023/12/04 14:10:26;;;;;;;5.30;4.50;;;0.70;99.90;;;;;;4916021;29;20214;-70
2023/12/04 14:12:52;;;;;;;3.80;3.45;;;0.70;99.90;;;;;;4913855;29;20582;-70
2023/12/04 14:15:19;;;;;;;6.75;5.35;;;0.70;99.90;;;;;;4912647;29;20218;-71
2023/12/04 14:17:47;;;;;;;7.95;5.45;;;0.70;99.90;;;;;;4916279;29;20282;-71
2023/12/04 14:20:18;;;;;;;8.85;5.03;;;0.70;99.90;;;;;;4911979;29;20203;-70
2023/12/04 14:22:45;;;;;;;5.35;4.85;;;0.60;99.90;;;;;;4914294;29;20317;-70
2023/12/04 14:25:12;;;;;;;4.70;4.22;;;0.70;99.90;;;;;;4914677;29;20218;-69
2023/12/04 14:27:40;;;;;;;10.25;5.80;;;0.70;99.90;;;;;;4913967;29;20700;-69
2023/12/04 14:30:08;;;;;;;8.75;5.05;;;0.70;99.90;;;;;;4915417;29;20215;-70
2023/12/04 14:32:35;;;;;;;3.95;3.72;;;0.70;99.90;;;;;;4915272;29;20227;-71
2023/12/04 14:35:05;;;;;;;10.85;6.72;;;0.70;99.90;;;;;;4913060;29;20402;-70
2023/12/04 14:37:31;;;;;;;5.97;4.65;;;0.70;99.90;;;;;;4911985;29;20579;-70
2023/12/04 14:39:58;;;;;;;5.10;3.50;;;0.70;99.90;;;;;;4915309;29;20221;-70
2023/12/04 14:42:25;;;;;;;8.68;4.82;;;0.70;99.90;;;;;;4915213;29;20521;-71
2023/12/04 14:44:51;;;;;;;4.22;3.95;;;0.70;99.90;;;;;;4914594;29;20212;-71
2023/12/04 14:47:18;;;;;;;6.43;4.40;;;0.70;99.90;;;;;;4913844;29;20207;-70
2023/12/04 14:49:46;;;;;;;6.13;5.57;;;0.70;99.90;;;;;;4914814;29;20217;-70
2023/12/04 14:52:14;;;;;;;5.25;3.33;;;0.70;99.90;;;;;;4914012;29;20223;-70
2023/12/04 14:54:51;;;;;;;5.03;4.57;;;0.70;99.90;;;;;;4915178;29;20689;-70
2023/12/04 14:57:49;;;;;;;5.13;4.55;;;0.70;99.90;;;;;;4914954;29;20206;-70
2023/12/04 15:01:19;;;;;;;6.20;4.90;;;0.70;99.90;;;;;;4914476;29;20217;-70
2023/12/04 15:06:38;;;;;;;9.30;6.40;;;0.70;99.90;;;;;;4905418;29;20581;-70
2023/12/04 15:12:16;;;;;;;7.32;4.65;;;0.70;99.90;;;;;;4914605;29;20237;-70
2023/12/04 15:14:49;;;;;;;4.38;4.07;;;0.70;99.90;;;;;;4906555;29;20206;-70
2023/12/04 15:17:29;;;;;;;4.93;4.50;;;0.70;99.90;;;;;;4912395;29;20633;-71
2023/12/04 15:20:18;;;;;;;3.53;3.20;;;0.70;99.90;;;;;;4914085;29;20224;-71
2023/12/04 15:22:44;;;;;;;4.07;3.75;;;0.70;99.90;;;;;;4910787;29;20242;-71
2023/12/04 15:25:12;;;;;;;4.45;3.65;;;0.70;99.90;;;;;;4909894;29;20635;-70
2023/12/04 15:27:38;;;;;;;7.45;4.18;;;0.70;99.90;;;;;;4907116;29;20210;-70
2023/12/04 15:30:07;;;;;;;6.25;3.85;;;0.70;99.90;;;;;;4912894;29;20225;-70
2023/12/04 15:32:34;;;;;;;3.42;2.45;;;0.70;99.90;;;;;;4911532;29;20233;-70
2023/12/04 15:35:00;;;;;;;5.72;4.82;;;0.70;99.90;;;;;;4913943;29;20211;-70
2023/12/04 15:37:27;;;;;;;11.17;7.17;;;0.70;99.90;;;;;;4911916;29;20203;-70
2023/12/04 15:39:53;;;;;;;2.90;0.73;;;0.70;99.90;;;;;;4909999;29;20566;-72
2023/12/04 15:42:21;;;;;;;4.67;4.27;;;0.60;99.90;;;;;;4911380;29;20613;-70
2023/12/04 15:44:46;;;;;;;2.95;2.70;;;0.60;99.90;;;;;;4912646;29;20481;-70
2023/12/04 15:47:13;;;;;;;6.70;5.93;;;0.60;99.90;;;;;;4913307;29;20213;-70
2023/12/04 15:49:39;;;;;;;5.55;3.05;;;0.60;99.90;;;;;;4910526;29;20210;-70
2023/12/04 15:52:06;;;;;;;5.07;3.37;;;0.60;99.90;;;;;;4918464;29;20226;-71
2023/12/04 15:54:32;;;;;;;6.60;4.32;;;0.60;99.90;;;;;;4912796;29;20638;-71
2023/12/04 15:57:00;;;;;;;2.87;2.70;;;0.60;99.90;;;;;;4913193;29;20206;-72
2023/12/04 15:59:27;;;;;;;5.22;3.25;;;0.60;99.90;;;;;;4906525;29;20467;-73
2023/12/04 16:01:53;;;;;;;5.07;3.63;;;0.60;99.90;;;;;;4914702;29;20234;-71
2023/12/04 16:04:20;;;;;;;4.00;3.65;;;0.60;99.90;;;;;;4913901;29;20267;-72
2023/12/04 16:06:48;;;;;;;4.28;3.83;;;0.60;99.90;;;;;;4914048;29;20218;-72
2023/12/04 16:09:15;;;;;;;14.07;3.60;;;0.60;99.90;;;;;;4903713;29;20231;-71
2023/12/04 16:11:42;;;;;;;3.22;2.42;;;0.60;99.90;;;;;;4907625;29;20900;-71
2023/12/04 16:14:09;;;;;;;3.90;3.63;;;0.60;99.90;;;;;;4906274;29;20217;-72
2023/12/04 16:16:37;;;;;;;6.50;2.40;;;0.50;99.90;;;;;;4911855;29;20206;-73
2023/12/04 16:19:04;;;;;;;3.80;1.83;;;0.50;99.90;;;;;;4914638;29;20234;-72
2023/12/04 16:21:31;;;;;;;3.25;2.78;;;0.50;99.90;;;;;;4911892;29;20273;-72
2023/12/04 16:23:58;;;;;;;3.03;2.05;;;0.50;99.90;;;;;;4903734;29;20230;-71
2023/12/04 16:26:24;;;;;;;3.05;2.85;;;0.50;99.90;;;;;;4906532;29;20213;-70
2023/12/04 16:28:51;;;;;;;1.65;1.60;;;0.50;99.90;;;;;;4910669;29;20642;-70
2023/12/04 16:31:19;;;;;;;6.03;4.32;;;0.50;99.90;;;;;;4912714;29;20244;-71
2023/12/04 16:33:47;;;;;;;2.15;1.60;;;0.50;99.90;;;;;;4912494;29;20211;-70
2023/12/04 16:36:14;;;;;;;8.90;4.55;;;0.50;99.90;;;;;;4911871;29;20226;-71
2023/12/04 16:38:40;;;;;;;2.10;1.90;;;0.50;99.90;;;;;;4911898;29;20233;-71
2023/12/04 16:41:08;;;;;;;2.55;2.45;;;0.50;99.90;;;;;;4911551;29;20269;-71
2023/12/04 16:43:35;;;;;;;8.73;3.05;;;0.50;99.90;;;;;;4913575;29;20230;-72
2023/12/04 16:46:04;;;;;;;2.95;2.75;;;0.50;99.90;;;;;;4913350;29;20229;-72
2023/12/04 16:48:31;;;;;;;1.20;1.00;;;0.50;99.90;;;;;;4912071;29;20722;-71
2023/12/04 16:50:59;;;;;;;18.08;2.67;;;0.50;99.90;;;;;;4914633;29;20226;-70
2023/12/04 16:53:26;;;;;;;0.90;0.90;;;0.50;99.90;;;;;;4916029;29;20216;-71
2023/12/04 16:55:53;;;;;;;2.08;1.05;;;0.50;99.90;;;;;;4915833;29;20675;-70
2023/12/04 16:58:19;;;;;;;2.50;2.03;;;0.50;99.90;;;;;;4915881;29;20214;-71
2023/12/04 17:00:46;;;;;;;2.28;2.17;;;0.50;99.90;;;;;;4914944;29;20241;-71
2023/12/04 17:03:14;;;;;;;4.32;2.78;;;0.50;99.90;;;;;;4916990;29;20347;-71
2023/12/04 17:05:40;;;;;;;4.63;4.32;;;0.50;99.90;;;;;;4915947;29;20246;-71
2023/12/04 17:08:09;;;;;;;3.35;3.00;;;0.50;99.90;;;;;;4915718;29;20226;-73
2023/12/04 17:10:36;;;;;;;5.25;2.67;;;0.50;99.90;;;;;;4917343;29;20229;-72
2023/12/04 17:13:02;;;;;;;3.42;2.90;;;0.50;99.90;;;;;;4918335;29;20210;-72
2023/12/04 17:15:29;;;;;;;5.57;4.50;;;0.60;99.90;;;;;;4916374;29;20246;-73
2023/12/04 17:17:56;;;;;;;3.47;2.83;;;0.60;99.90;;;;;;4915944;29;20206;-74
2023/12/04 17:20:22;;;;;;;5.75;3.40;;;0.60;99.90;;;;;;4914511;29;20222;-73
2023/12/04 17:22:49;;;;;;;3.30;3.00;;;0.60;99.90;;;;;;4914714;29;20234;-73
2023/12/04 17:25:17;;;;;;;3.75;3.53;;;0.60;99.90;;;;;;4917066;29;20223;-73
2023/12/04 17:27:44;;;;;;;3.92;1.88;;;0.60;99.90;;;;;;4916187;29;20210;-72
2023/12/04 17:30:11;;;;;;;5.18;2.10;;;0.60;99.90;;;;;;4912559;29;20286;-73
2023/12/04 17:32:38;;;;;;;2.70;2.47;;;0.60;99.90;;;;;;4916699;29;20266;-73
2023/12/04 17:35:06;;;;;;;2.70;2.50;;;0.60;99.90;;;;;;4915396;29;20526;-73
2023/12/04 17:37:33;;;;;;;4.25;2.53;;;0.60;99.90;;;;;;4916962;29;20202;-73
2023/12/04 17:40:00;;;;;;;7.18;4.20;;;0.60;99.90;;;;;;4914500;29;20215;-73
2023/12/04 17:42:28;;;;;;;4.97;3.92;;;0.60;99.90;;;;;;4916263;29;20230;-72
2023/12/04 17:44:55;;;;;;;2.13;1.98;;;0.60;99.90;;;;;;4915295;29;20242;-72
2023/12/04 17:47:21;;;;;;;4.68;4.30;;;0.60;99.90;;;;;;4915452;29;20206;-73
2023/12/04 17:49:48;;;;;;;4.10;3.13;;;0.60;99.90;;;;;;4913381;29;20221;-74
2023/12/04 17:52:15;;;;;;;3.65;3.35;;;0.60;99.90;;;;;;4915165;29;20222;-73
2023/12/04 17:54:41;;;;;;;2.50;1.92;;;0.60;99.90;;;;;;4916287;29;20216;-72
2023/12/04 17:57:08;;;;;;;3.78;3.40;;;0.60;99.90;;;;;;4916041;29;20238;-73
2023/12/04 17:59:35;;;;;;;2.95;2.85;;;0.60;99.90;;;;;;4911198;29;20210;-73
2023/12/04 18:02:03;;;;;;;2.85;2.50;;;0.60;99.90;;;;;;4911905;29;20270;-73
2023/12/04 18:04:30;;;;;;;3.17;2.08;;;0.60;99.90;;;;;;4916019;29;20226;-73
2023/12/04 18:06:58;;;;;;;3.42;3.28;;;0.70;99.90;;;;;;4915436;29;20206;-74